sensor_id;sensor_type;location;lat;lon;timestamp;pressure;altitude;pressure_sealevel;temperature
70415;BMP280;57837;52.064;113.478;2023-10-09T00:00:59;94924.84;;;2.81
70415;BMP280;57837;52.064;113.478;2023-10-09T00:04:21;94926.47;;;2.92
70415;BMP280;57837;52.064;113.478;2023-10-09T00:07:26;94927.34;;;3.07
70415;BMP280;57837;52.064;113.478;2023-10-09T00:10:33;94927.22;;;3.30
70415;BMP280;57837;52.064;113.478;2023-10-09T00:13:49;94931.91;;;4.05
70415;BMP280;57837;52.064;113.478;2023-10-09T00:16:52;94937.38;;;4.62
70415;BMP280;57837;52.064;113.478;2023-10-09T00:20:06;94936.09;;;5.14
70415;BMP280;57837;52.064;113.478;2023-10-09T00:23:20;94940.22;;;5.58
70415;BMP280;57837;52.064;113.478;2023-10-09T00:26:28;94933.97;;;5.91
70415;BMP280;57837;52.064;113.478;2023-10-09T00:29:33;94939.84;;;6.27
70415;BMP280;57837;52.064;113.478;2023-10-09T00:32:41;94938.94;;;6.83
70415;BMP280;57837;52.064;113.478;2023-10-09T00:35:47;94937.28;;;7.17
70415;BMP280;57837;52.064;113.478;2023-10-09T00:38:57;94945.38;;;7.19
70415;BMP280;57837;52.064;113.478;2023-10-09T00:42:04;94940.91;;;7.24
70415;BMP280;57837;52.064;113.478;2023-10-09T00:45:10;94939.06;;;7.28
70415;BMP280;57837;52.064;113.478;2023-10-09T00:48:19;94935.59;;;7.48
70415;BMP280;57837;52.064;113.478;2023-10-09T00:51:35;94935.72;;;7.79
70415;BMP280;57837;52.064;113.478;2023-10-09T00:54:39;94939.84;;;8.14
70415;BMP280;57837;52.064;113.478;2023-10-09T00:57:45;94942.75;;;8.53
70415;BMP280;57837;52.064;113.478;2023-10-09T01:01:00;94942.63;;;8.64
70415;BMP280;57837;52.064;113.478;2023-10-09T01:04:07;94943.78;;;8.59
70415;BMP280;57837;52.064;113.478;2023-10-09T01:07:15;94946.22;;;8.73
70415;BMP280;57837;52.064;113.478;2023-10-09T01:10:19;94938.66;;;8.56
70415;BMP280;57837;52.064;113.478;2023-10-09T01:13:25;94944.75;;;8.72
70415;BMP280;57837;52.064;113.478;2023-10-09T01:16:43;94946.03;;;8.88
70415;BMP280;57837;52.064;113.478;2023-10-09T01:19:46;94940.03;;;9.21
70415;BMP280;57837;52.064;113.478;2023-10-09T01:22:50;94937.88;;;9.66
70415;BMP280;57837;52.064;113.478;2023-10-09T01:25:54;94940.28;;;10.20
70415;BMP280;57837;52.064;113.478;2023-10-09T01:28:58;94944.91;;;10.68
70415;BMP280;57837;52.064;113.478;2023-10-09T01:32:03;94942.84;;;10.79
70415;BMP280;57837;52.064;113.478;2023-10-09T01:35:10;94940.69;;;10.58
70415;BMP280;57837;52.064;113.478;2023-10-09T01:38:25;94945.06;;;10.21
70415;BMP280;57837;52.064;113.478;2023-10-09T01:41:44;94940.03;;;10.34
70415;BMP280;57837;52.064;113.478;2023-10-09T01:44:50;94941.19;;;10.69
70415;BMP280;57837;52.064;113.478;2023-10-09T01:47:54;94940.25;;;10.79
70415;BMP280;57837;52.064;113.478;2023-10-09T01:50:58;94936.97;;;10.59
70415;BMP280;57837;52.064;113.478;2023-10-09T01:54:03;94934.47;;;10.35
70415;BMP280;57837;52.064;113.478;2023-10-09T01:57:08;94933.03;;;10.70
70415;BMP280;57837;52.064;113.478;2023-10-09T02:00:16;94935.44;;;10.97
70415;BMP280;57837;52.064;113.478;2023-10-09T02:03:26;94923.63;;;11.29
70415;BMP280;57837;52.064;113.478;2023-10-09T02:06:32;94939.63;;;11.56
70415;BMP280;57837;52.064;113.478;2023-10-09T02:09:41;94930.19;;;11.78
70415;BMP280;57837;52.064;113.478;2023-10-09T02:12:56;94938.94;;;11.84
70415;BMP280;57837;52.064;113.478;2023-10-09T02:16:03;94924.66;;;11.92
70415;BMP280;57837;52.064;113.478;2023-10-09T02:19:17;94921.72;;;12.32
70415;BMP280;57837;52.064;113.478;2023-10-09T02:22:41;94918.75;;;12.46
70415;BMP280;57837;52.064;113.478;2023-10-09T02:25:46;94911.47;;;12.66
70415;BMP280;57837;52.064;113.478;2023-10-09T02:28:53;94918.03;;;13.09
70415;BMP280;57837;52.064;113.478;2023-10-09T02:32:07;94909.63;;;13.39
70415;BMP280;57837;52.064;113.478;2023-10-09T02:35:29;94901.19;;;13.69
70415;BMP280;57837;52.064;113.478;2023-10-09T02:38:46;94908.56;;;13.71
70415;BMP280;57837;52.064;113.478;2023-10-09T02:41:58;94906.09;;;13.67
70415;BMP280;57837;52.064;113.478;2023-10-09T02:45:05;94900.31;;;14.07
70415;BMP280;57837;52.064;113.478;2023-10-09T02:48:14;94892.66;;;14.13
70415;BMP280;57837;52.064;113.478;2023-10-09T02:51:20;94884.22;;;14.39
70415;BMP280;57837;52.064;113.478;2023-10-09T02:54:30;94880.53;;;13.97
70415;BMP280;57837;52.064;113.478;2023-10-09T02:57:39;94877.34;;;13.49
70415;BMP280;57837;52.064;113.478;2023-10-09T03:00:45;94882.53;;;13.71
70415;BMP280;57837;52.064;113.478;2023-10-09T03:03:50;94879.91;;;13.84
70415;BMP280;57837;52.064;113.478;2023-10-09T03:06:54;94870.84;;;13.97
70415;BMP280;57837;52.064;113.478;2023-10-09T03:10:00;94873.44;;;13.88
70415;BMP280;57837;52.064;113.478;2023-10-09T03:13:04;94869.81;;;13.64
70415;BMP280;57837;52.064;113.478;2023-10-09T03:16:11;94863.78;;;13.54
70415;BMP280;57837;52.064;113.478;2023-10-09T03:19:22;94866.09;;;13.52
70415;BMP280;57837;52.064;113.478;2023-10-09T03:22:26;94854.88;;;13.43
70415;BMP280;57837;52.064;113.478;2023-10-09T03:25:30;94854.72;;;13.37
70415;BMP280;57837;52.064;113.478;2023-10-09T03:28:34;94845.66;;;13.63
70415;BMP280;57837;52.064;113.478;2023-10-09T03:31:38;94845.53;;;13.98
70415;BMP280;57837;52.064;113.478;2023-10-09T03:34:42;94845.69;;;14.25
70415;BMP280;57837;52.064;113.478;2023-10-09T03:37:46;94844.94;;;14.25
70415;BMP280;57837;52.064;113.478;2023-10-09T03:40:49;94837.13;;;13.94
70415;BMP280;57837;52.064;113.478;2023-10-09T03:43:53;94833.75;;;13.84
70415;BMP280;57837;52.064;113.478;2023-10-09T03:46:57;94835.63;;;13.84
70415;BMP280;57837;52.064;113.478;2023-10-09T03:50:01;94841.97;;;14.04
70415;BMP280;57837;52.064;113.478;2023-10-09T03:53:14;94825.06;;;14.09
70415;BMP280;57837;52.064;113.478;2023-10-09T03:56:17;94831.72;;;14.10
70415;BMP280;57837;52.064;113.478;2023-10-09T03:59:21;94827.00;;;14.18
70415;BMP280;57837;52.064;113.478;2023-10-09T04:02:25;94811.03;;;14.06
70415;BMP280;57837;52.064;113.478;2023-10-09T04:05:28;94810.97;;;13.97
70415;BMP280;57837;52.064;113.478;2023-10-09T04:08:32;94810.94;;;14.19
70415;BMP280;57837;52.064;113.478;2023-10-09T04:11:37;94807.38;;;14.35
70415;BMP280;57837;52.064;113.478;2023-10-09T04:14:45;94800.00;;;14.51
70415;BMP280;57837;52.064;113.478;2023-10-09T04:18:01;94795.84;;;14.63
70415;BMP280;57837;52.064;113.478;2023-10-09T04:21:05;94787.16;;;14.66
70415;BMP280;57837;52.064;113.478;2023-10-09T04:24:31;94790.19;;;14.65
70415;BMP280;57837;52.064;113.478;2023-10-09T04:27:43;94779.78;;;14.65
70415;BMP280;57837;52.064;113.478;2023-10-09T04:30:49;94778.34;;;14.73
70415;BMP280;57837;52.064;113.478;2023-10-09T04:33:59;94768.78;;;14.79
70415;BMP280;57837;52.064;113.478;2023-10-09T04:37:21;94758.78;;;14.95
70415;BMP280;57837;52.064;113.478;2023-10-09T04:40:39;94758.03;;;15.04
70415;BMP280;57837;52.064;113.478;2023-10-09T04:43:49;94760.81;;;15.19
70415;BMP280;57837;52.064;113.478;2023-10-09T04:46:53;94750.31;;;15.37
70415;BMP280;57837;52.064;113.478;2023-10-09T04:50:16;94748.13;;;15.44
70415;BMP280;57837;52.064;113.478;2023-10-09T04:53:34;94739.88;;;15.46
70415;BMP280;57837;52.064;113.478;2023-10-09T04:56:47;94736.81;;;15.48
70415;BMP280;57837;52.064;113.478;2023-10-09T04:59:56;94726.97;;;15.42
70415;BMP280;57837;52.064;113.478;2023-10-09T05:03:03;94722.56;;;15.58
70415;BMP280;57837;52.064;113.478;2023-10-09T05:06:26;94715.88;;;15.57
70415;BMP280;57837;52.064;113.478;2023-10-09T05:09:56;94709.25;;;15.56
70415;BMP280;57837;52.064;113.478;2023-10-09T05:13:01;94710.78;;;15.62
70415;BMP280;57837;52.064;113.478;2023-10-09T05:16:12;94700.75;;;15.70
70415;BMP280;57837;52.064;113.478;2023-10-09T05:19:28;94688.00;;;15.72
70415;BMP280;57837;52.064;113.478;2023-10-09T05:22:57;94687.88;;;15.66
70415;BMP280;57837;52.064;113.478;2023-10-09T05:26:00;94681.16;;;15.74
70415;BMP280;57837;52.064;113.478;2023-10-09T05:29:25;94678.38;;;15.78
70415;BMP280;57837;52.064;113.478;2023-10-09T05:32:32;94673.38;;;15.89
70415;BMP280;57837;52.064;113.478;2023-10-09T05:35:38;94669.88;;;15.92
70415;BMP280;57837;52.064;113.478;2023-10-09T05:39:02;94663.59;;;15.99
70415;BMP280;57837;52.064;113.478;2023-10-09T05:42:25;94659.59;;;16.12
70415;BMP280;57837;52.064;113.478;2023-10-09T05:45:46;94651.69;;;16.21
70415;BMP280;57837;52.064;113.478;2023-10-09T05:48:57;94646.16;;;16.28
70415;BMP280;57837;52.064;113.478;2023-10-09T05:52:14;94641.19;;;16.30
70415;BMP280;57837;52.064;113.478;2023-10-09T05:55:36;94636.06;;;16.36
70415;BMP280;57837;52.064;113.478;2023-10-09T05:58:48;94633.53;;;16.42
70415;BMP280;57837;52.064;113.478;2023-10-09T06:02:11;94631.56;;;16.51
70415;BMP280;57837;52.064;113.478;2023-10-09T06:05:55;94626.16;;;16.55
70415;BMP280;57837;52.064;113.478;2023-10-09T06:09:06;94624.72;;;16.54
70415;BMP280;57837;52.064;113.478;2023-10-09T06:12:31;94611.91;;;16.56
70415;BMP280;57837;52.064;113.478;2023-10-09T06:15:39;94617.69;;;16.60
70415;BMP280;57837;52.064;113.478;2023-10-09T06:18:48;94602.28;;;16.62
70415;BMP280;57837;52.064;113.478;2023-10-09T06:22:11;94607.28;;;16.65
70415;BMP280;57837;52.064;113.478;2023-10-09T06:25:15;94601.44;;;16.70
70415;BMP280;57837;52.064;113.478;2023-10-09T06:28:20;94596.47;;;16.72
70415;BMP280;57837;52.064;113.478;2023-10-09T06:31:37;94594.06;;;16.69
70415;BMP280;57837;52.064;113.478;2023-10-09T06:35:00;94594.78;;;16.69
70415;BMP280;57837;52.064;113.478;2023-10-09T06:38:25;94586.66;;;16.67
70415;BMP280;57837;52.064;113.478;2023-10-09T06:41:44;94591.44;;;16.69
70415;BMP280;57837;52.064;113.478;2023-10-09T06:44:48;94582.97;;;16.74
70415;BMP280;57837;52.064;113.478;2023-10-09T06:47:57;94581.78;;;16.75
70415;BMP280;57837;52.064;113.478;2023-10-09T06:51:33;94575.66;;;16.78
70415;BMP280;57837;52.064;113.478;2023-10-09T06:54:46;94577.09;;;16.79
70415;BMP280;57837;52.064;113.478;2023-10-09T06:57:53;94570.94;;;16.82
70415;BMP280;57837;52.064;113.478;2023-10-09T07:00:57;94570.31;;;16.87
70415;BMP280;57837;52.064;113.478;2023-10-09T07:04:02;94568.00;;;16.89
70415;BMP280;57837;52.064;113.478;2023-10-09T07:07:24;94563.25;;;16.93
70415;BMP280;57837;52.064;113.478;2023-10-09T07:10:32;94573.53;;;16.97
70415;BMP280;57837;52.064;113.478;2023-10-09T07:13:42;94560.19;;;16.95
70415;BMP280;57837;52.064;113.478;2023-10-09T07:17:06;94571.91;;;16.99
70415;BMP280;57837;52.064;113.478;2023-10-09T07:20:27;94573.63;;;17.02
70415;BMP280;57837;52.064;113.478;2023-10-09T07:23:40;94561.97;;;17.03
70415;BMP280;57837;52.064;113.478;2023-10-09T07:26:51;94557.47;;;17.04
70415;BMP280;57837;52.064;113.478;2023-10-09T07:29:56;94556.47;;;17.01
70415;BMP280;57837;52.064;113.478;2023-10-09T07:33:04;94559.38;;;17.03
70415;BMP280;57837;52.064;113.478;2023-10-09T07:36:14;94549.81;;;17.00
70415;BMP280;57837;52.064;113.478;2023-10-09T07:39:18;94556.94;;;17.00
70415;BMP280;57837;52.064;113.478;2023-10-09T07:42:26;94549.53;;;16.98
70415;BMP280;57837;52.064;113.478;2023-10-09T07:45:47;94554.25;;;16.94
70415;BMP280;57837;52.064;113.478;2023-10-09T07:48:54;94547.78;;;16.90
70415;BMP280;57837;52.064;113.478;2023-10-09T07:51:57;94543.91;;;16.85
70415;BMP280;57837;52.064;113.478;2023-10-09T07:55:02;94540.19;;;16.77
70415;BMP280;57837;52.064;113.478;2023-10-09T07:58:08;94544.63;;;16.71
70415;BMP280;57837;52.064;113.478;2023-10-09T08:01:15;94545.81;;;16.70
70415;BMP280;57837;52.064;113.478;2023-10-09T08:04:23;94546.69;;;16.67
70415;BMP280;57837;52.064;113.478;2023-10-09T08:07:48;94543.63;;;16.68
70415;BMP280;57837;52.064;113.478;2023-10-09T08:11:37;94542.41;;;16.64
70415;BMP280;57837;52.064;113.478;2023-10-09T08:14:44;94540.34;;;16.53
70415;BMP280;57837;52.064;113.478;2023-10-09T08:17:52;94536.19;;;16.47
70415;BMP280;57837;52.064;113.478;2023-10-09T08:21:18;94532.50;;;16.39
70415;BMP280;57837;52.064;113.478;2023-10-09T08:24:44;94527.34;;;16.29
70415;BMP280;57837;52.064;113.478;2023-10-09T08:28:01;94525.97;;;16.19
70415;BMP280;57837;52.064;113.478;2023-10-09T08:31:30;94529.41;;;16.11
70415;BMP280;57837;52.064;113.478;2023-10-09T08:34:49;94523.66;;;16.07
70415;BMP280;57837;52.064;113.478;2023-10-09T08:38:01;94518.69;;;16.09
70415;BMP280;57837;52.064;113.478;2023-10-09T08:41:12;94517.72;;;16.06
70415;BMP280;57837;52.064;113.478;2023-10-09T08:44:23;94525.09;;;16.08
70415;BMP280;57837;52.064;113.478;2023-10-09T08:47:29;94516.81;;;16.09
70415;BMP280;57837;52.064;113.478;2023-10-09T08:50:35;94524.19;;;16.11
70415;BMP280;57837;52.064;113.478;2023-10-09T08:53:40;94524.00;;;16.14
70415;BMP280;57837;52.064;113.478;2023-10-09T08:56:48;94518.16;;;16.05
70415;BMP280;57837;52.064;113.478;2023-10-09T08:59:54;94512.28;;;15.95
70415;BMP280;57837;52.064;113.478;2023-10-09T09:02:59;94518.28;;;15.86
70415;BMP280;57837;52.064;113.478;2023-10-09T09:06:06;94512.97;;;15.81
70415;BMP280;57837;52.064;113.478;2023-10-09T09:09:12;94510.38;;;15.81
70415;BMP280;57837;52.064;113.478;2023-10-09T09:12:20;94518.66;;;15.79
70415;BMP280;57837;52.064;113.478;2023-10-09T09:15:27;94516.94;;;15.76
70415;BMP280;57837;52.064;113.478;2023-10-09T09:18:31;94514.94;;;15.71
70415;BMP280;57837;52.064;113.478;2023-10-09T09:21:52;94508.16;;;15.65
70415;BMP280;57837;52.064;113.478;2023-10-09T09:25:02;94507.53;;;15.55
70415;BMP280;57837;52.064;113.478;2023-10-09T09:28:31;94507.72;;;15.42
70415;BMP280;57837;52.064;113.478;2023-10-09T09:31:55;94512.63;;;15.26
70415;BMP280;57837;52.064;113.478;2023-10-09T09:35:19;94509.09;;;15.05
70415;BMP280;57837;52.064;113.478;2023-10-09T09:38:26;94508.59;;;14.92
70415;BMP280;57837;52.064;113.478;2023-10-09T09:41:31;94500.69;;;14.77
70415;BMP280;57837;52.064;113.478;2023-10-09T09:44:37;94504.22;;;14.65
70415;BMP280;57837;52.064;113.478;2023-10-09T09:47:49;94507.41;;;14.51
70415;BMP280;57837;52.064;113.478;2023-10-09T09:50:57;94511.09;;;14.35
70415;BMP280;57837;52.064;113.478;2023-10-09T09:54:02;94507.38;;;14.18
70415;BMP280;57837;52.064;113.478;2023-10-09T09:57:07;94506.94;;;14.01
70415;BMP280;57837;52.064;113.478;2023-10-09T10:00:18;94508.53;;;13.81
70415;BMP280;57837;52.064;113.478;2023-10-09T10:03:53;94513.84;;;13.59
70415;BMP280;57837;52.064;113.478;2023-10-09T10:07:00;94516.28;;;13.53
70415;BMP280;57837;52.064;113.478;2023-10-09T10:10:38;94509.69;;;13.61
70415;BMP280;57837;52.064;113.478;2023-10-09T10:17:08;94514.47;;;13.63
70415;BMP280;57837;52.064;113.478;2023-10-09T10:20:21;94512.53;;;13.54
70415;BMP280;57837;52.064;113.478;2023-10-09T10:23:31;94522.38;;;13.50
70415;BMP280;57837;52.064;113.478;2023-10-09T10:26:36;94520.44;;;13.33
70415;BMP280;57837;52.064;113.478;2023-10-09T10:29:40;94516.41;;;12.92
70415;BMP280;57837;52.064;113.478;2023-10-09T10:33:01;94513.97;;;12.66
70415;BMP280;57837;52.064;113.478;2023-10-09T10:36:19;94508.13;;;12.53
70415;BMP280;57837;52.064;113.478;2023-10-09T10:39:27;94506.34;;;12.41
70415;BMP280;57837;52.064;113.478;2023-10-09T10:42:49;94514.63;;;12.27
70415;BMP280;57837;52.064;113.478;2023-10-09T10:46:12;94509.06;;;12.16
70415;BMP280;57837;52.064;113.478;2023-10-09T10:49:35;94514.59;;;12.05
70415;BMP280;57837;52.064;113.478;2023-10-09T10:52:44;94517.56;;;11.94
70415;BMP280;57837;52.064;113.478;2023-10-09T10:55:55;94522.34;;;11.83
70415;BMP280;57837;52.064;113.478;2023-10-09T10:59:21;94514.78;;;11.76
70415;BMP280;57837;52.064;113.478;2023-10-09T11:02:32;94515.66;;;11.73
70415;BMP280;57837;52.064;113.478;2023-10-09T11:05:42;94523.75;;;11.63
70415;BMP280;57837;52.064;113.478;2023-10-09T11:08:47;94517.63;;;11.56
70415;BMP280;57837;52.064;113.478;2023-10-09T11:12:11;94521.41;;;11.43
70415;BMP280;57837;52.064;113.478;2023-10-09T11:15:39;94522.75;;;11.35
70415;BMP280;57837;52.064;113.478;2023-10-09T11:19:13;94524.50;;;11.25
70415;BMP280;57837;52.064;113.478;2023-10-09T11:22:32;94520.78;;;11.13
70415;BMP280;57837;52.064;113.478;2023-10-09T11:25:47;94524.06;;;11.01
70415;BMP280;57837;52.064;113.478;2023-10-09T11:29:15;94533.41;;;10.86
70415;BMP280;57837;52.064;113.478;2023-10-09T11:32:20;94529.72;;;10.71
70415;BMP280;57837;52.064;113.478;2023-10-09T11:35:26;94525.50;;;10.64
70415;BMP280;57837;52.064;113.478;2023-10-09T11:38:38;94522.56;;;10.50
70415;BMP280;57837;52.064;113.478;2023-10-09T11:41:41;94524.50;;;10.46
70415;BMP280;57837;52.064;113.478;2023-10-09T11:44:45;94529.78;;;10.42
70415;BMP280;57837;52.064;113.478;2023-10-09T11:48:06;94532.53;;;10.35
70415;BMP280;57837;52.064;113.478;2023-10-09T11:51:23;94533.28;;;10.19
70415;BMP280;57837;52.064;113.478;2023-10-09T11:54:31;94524.69;;;10.10
70415;BMP280;57837;52.064;113.478;2023-10-09T11:57:35;94520.91;;;9.98
70415;BMP280;57837;52.064;113.478;2023-10-09T12:00:38;94531.72;;;9.93
70415;BMP280;57837;52.064;113.478;2023-10-09T12:03:50;94532.72;;;9.99
70415;BMP280;57837;52.064;113.478;2023-10-09T12:06:55;94535.59;;;10.01
70415;BMP280;57837;52.064;113.478;2023-10-09T12:10:09;94536.88;;;9.93
70415;BMP280;57837;52.064;113.478;2023-10-09T12:13:14;94542.56;;;9.88
70415;BMP280;57837;52.064;113.478;2023-10-09T12:16:19;94530.75;;;9.87
70415;BMP280;57837;52.064;113.478;2023-10-09T12:19:25;94535.00;;;9.81
70415;BMP280;57837;52.064;113.478;2023-10-09T12:22:28;94539.91;;;9.75
70415;BMP280;57837;52.064;113.478;2023-10-09T12:25:33;94539.66;;;9.70
70415;BMP280;57837;52.064;113.478;2023-10-09T12:28:38;94539.53;;;9.57
70415;BMP280;57837;52.064;113.478;2023-10-09T12:31:42;94549.16;;;9.40
70415;BMP280;57837;52.064;113.478;2023-10-09T12:34:48;94541.94;;;9.32
70415;BMP280;57837;52.064;113.478;2023-10-09T12:37:54;94545.44;;;9.25
70415;BMP280;57837;52.064;113.478;2023-10-09T12:41:05;94551.88;;;9.17
70415;BMP280;57837;52.064;113.478;2023-10-09T12:44:23;94541.00;;;9.06
70415;BMP280;57837;52.064;113.478;2023-10-09T12:47:31;94545.22;;;9.00
70415;BMP280;57837;52.064;113.478;2023-10-09T12:50:36;94547.13;;;8.96
70415;BMP280;57837;52.064;113.478;2023-10-09T12:53:49;94554.28;;;8.88
70415;BMP280;57837;52.064;113.478;2023-10-09T12:57:00;94552.88;;;8.84
70415;BMP280;57837;52.064;113.478;2023-10-09T13:00:05;94551.50;;;8.79
70415;BMP280;57837;52.064;113.478;2023-10-09T13:03:13;94553.75;;;8.77
70415;BMP280;57837;52.064;113.478;2023-10-09T13:06:20;94554.22;;;8.72
70415;BMP280;57837;52.064;113.478;2023-10-09T13:09:26;94554.34;;;8.65
70415;BMP280;57837;52.064;113.478;2023-10-09T13:12:46;94561.44;;;8.61
70415;BMP280;57837;52.064;113.478;2023-10-09T13:15:49;94562.34;;;8.51
70415;BMP280;57837;52.064;113.478;2023-10-09T13:18:55;94561.69;;;8.47
70415;BMP280;57837;52.064;113.478;2023-10-09T13:21:59;94567.69;;;8.40
70415;BMP280;57837;52.064;113.478;2023-10-09T13:25:10;94565.94;;;8.33
70415;BMP280;57837;52.064;113.478;2023-10-09T13:28:36;94565.75;;;8.21
70415;BMP280;57837;52.064;113.478;2023-10-09T13:31:40;94566.69;;;8.11
70415;BMP280;57837;52.064;113.478;2023-10-09T13:34:52;94562.72;;;8.06
70415;BMP280;57837;52.064;113.478;2023-10-09T13:37:59;94555.09;;;7.99
70415;BMP280;57837;52.064;113.478;2023-10-09T13:41:02;94553.63;;;7.98
70415;BMP280;57837;52.064;113.478;2023-10-09T13:44:08;94554.28;;;8.02
70415;BMP280;57837;52.064;113.478;2023-10-09T13:47:12;94554.94;;;8.10
70415;BMP280;57837;52.064;113.478;2023-10-09T13:50:25;94552.22;;;8.17
70415;BMP280;57837;52.064;113.478;2023-10-09T13:53:35;94549.66;;;8.17
70415;BMP280;57837;52.064;113.478;2023-10-09T13:56:39;94545.22;;;8.17
70415;BMP280;57837;52.064;113.478;2023-10-09T13:59:43;94552.66;;;8.12
70415;BMP280;57837;52.064;113.478;2023-10-09T14:02:52;94548.34;;;8.05
70415;BMP280;57837;52.064;113.478;2023-10-09T14:05:55;94549.50;;;8.01
70415;BMP280;57837;52.064;113.478;2023-10-09T14:09:04;94554.41;;;7.95
70415;BMP280;57837;52.064;113.478;2023-10-09T14:12:08;94553.81;;;7.87
70415;BMP280;57837;52.064;113.478;2023-10-09T14:15:15;94554.59;;;7.81
70415;BMP280;57837;52.064;113.478;2023-10-09T14:18:21;94554.03;;;7.70
70415;BMP280;57837;52.064;113.478;2023-10-09T14:21:25;94558.19;;;7.64
70415;BMP280;57837;52.064;113.478;2023-10-09T14:24:32;94556.03;;;7.58
70415;BMP280;57837;52.064;113.478;2023-10-09T14:27:41;94557.59;;;7.52
70415;BMP280;57837;52.064;113.478;2023-10-09T14:30:45;94549.94;;;7.45
70415;BMP280;57837;52.064;113.478;2023-10-09T14:33:55;94550.09;;;7.35
70415;BMP280;57837;52.064;113.478;2023-10-09T14:36:59;94556.44;;;7.27
70415;BMP280;57837;52.064;113.478;2023-10-09T14:40:07;94552.44;;;7.22
70415;BMP280;57837;52.064;113.478;2023-10-09T14:43:16;94556.88;;;7.21
70415;BMP280;57837;52.064;113.478;2023-10-09T14:46:23;94541.50;;;7.14
70415;BMP280;57837;52.064;113.478;2023-10-09T14:49:29;94555.59;;;7.06
70415;BMP280;57837;52.064;113.478;2023-10-09T14:52:38;94554.16;;;7.05
70415;BMP280;57837;52.064;113.478;2023-10-09T14:55:42;94552.34;;;7.02
70415;BMP280;57837;52.064;113.478;2023-10-09T14:58:49;94553.84;;;6.96
70415;BMP280;57837;52.064;113.478;2023-10-09T15:01:53;94546.19;;;6.93
70415;BMP280;57837;52.064;113.478;2023-10-09T15:04:57;94548.09;;;6.85
70415;BMP280;57837;52.064;113.478;2023-10-09T15:08:01;94548.91;;;6.78
70415;BMP280;57837;52.064;113.478;2023-10-09T15:11:04;94547.50;;;6.70
70415;BMP280;57837;52.064;113.478;2023-10-09T15:14:08;94540.53;;;6.71
70415;BMP280;57837;52.064;113.478;2023-10-09T15:17:12;94539.63;;;6.84
70415;BMP280;57837;52.064;113.478;2023-10-09T15:20:21;94539.97;;;6.87
70415;BMP280;57837;52.064;113.478;2023-10-09T15:23:25;94537.38;;;6.90
70415;BMP280;57837;52.064;113.478;2023-10-09T15:26:28;94541.78;;;6.90
70415;BMP280;57837;52.064;113.478;2023-10-09T15:29:35;94547.44;;;6.81
70415;BMP280;57837;52.064;113.478;2023-10-09T15:32:45;94555.63;;;6.69
70415;BMP280;57837;52.064;113.478;2023-10-09T15:35:49;94543.66;;;6.55
70415;BMP280;57837;52.064;113.478;2023-10-09T15:38:53;94553.41;;;6.30
70415;BMP280;57837;52.064;113.478;2023-10-09T15:41:57;94554.06;;;5.93
70415;BMP280;57837;52.064;113.478;2023-10-09T15:45:01;94557.13;;;5.74
70415;BMP280;57837;52.064;113.478;2023-10-09T15:48:05;94552.38;;;5.68
70415;BMP280;57837;52.064;113.478;2023-10-09T15:51:14;94554.28;;;5.57
70415;BMP280;57837;52.064;113.478;2023-10-09T15:54:19;94549.16;;;5.47
70415;BMP280;57837;52.064;113.478;2023-10-09T15:57:23;94547.41;;;5.40
70415;BMP280;57837;52.064;113.478;2023-10-09T16:00:27;94549.63;;;5.38
70415;BMP280;57837;52.064;113.478;2023-10-09T16:03:33;94559.16;;;5.34
70415;BMP280;57837;52.064;113.478;2023-10-09T16:06:38;94546.31;;;5.38
70415;BMP280;57837;52.064;113.478;2023-10-09T16:09:44;94545.22;;;5.31
70415;BMP280;57837;52.064;113.478;2023-10-09T16:12:50;94555.50;;;5.28
70415;BMP280;57837;52.064;113.478;2023-10-09T16:15:54;94559.16;;;5.30
70415;BMP280;57837;52.064;113.478;2023-10-09T16:19:02;94558.75;;;5.43
70415;BMP280;57837;52.064;113.478;2023-10-09T16:22:07;94554.72;;;5.45
70415;BMP280;57837;52.064;113.478;2023-10-09T16:25:17;94552.56;;;5.33
70415;BMP280;57837;52.064;113.478;2023-10-09T16:28:23;94550.00;;;5.29
70415;BMP280;57837;52.064;113.478;2023-10-09T16:31:29;94551.09;;;5.28
70415;BMP280;57837;52.064;113.478;2023-10-09T16:34:43;94548.16;;;5.30
70415;BMP280;57837;52.064;113.478;2023-10-09T16:37:48;94550.34;;;5.31
70415;BMP280;57837;52.064;113.478;2023-10-09T16:40:54;94541.53;;;5.36
70415;BMP280;57837;52.064;113.478;2023-10-09T16:43:57;94553.28;;;5.37
70415;BMP280;57837;52.064;113.478;2023-10-09T16:47:03;94553.66;;;5.39
70415;BMP280;57837;52.064;113.478;2023-10-09T16:50:08;94557.75;;;5.19
70415;BMP280;57837;52.064;113.478;2023-10-09T16:53:15;94556.41;;;4.89
70415;BMP280;57837;52.064;113.478;2023-10-09T16:56:21;94557.84;;;4.83
70415;BMP280;57837;52.064;113.478;2023-10-09T16:59:25;94560.41;;;4.83
70415;BMP280;57837;52.064;113.478;2023-10-09T17:02:28;94557.13;;;4.90
70415;BMP280;57837;52.064;113.478;2023-10-09T17:05:36;94557.50;;;4.92
70415;BMP280;57837;52.064;113.478;2023-10-09T17:08:58;94563.34;;;4.89
70415;BMP280;57837;52.064;113.478;2023-10-09T17:12:02;94557.84;;;4.83
70415;BMP280;57837;52.064;113.478;2023-10-09T17:15:06;94562.25;;;4.79
70415;BMP280;57837;52.064;113.478;2023-10-09T17:18:10;94562.66;;;4.71
70415;BMP280;57837;52.064;113.478;2023-10-09T17:21:16;94556.78;;;4.74
70415;BMP280;57837;52.064;113.478;2023-10-09T17:24:20;94556.03;;;4.66
70415;BMP280;57837;52.064;113.478;2023-10-09T17:27:26;94561.56;;;4.57
70415;BMP280;57837;52.064;113.478;2023-10-09T17:30:30;94566.69;;;4.57
70415;BMP280;57837;52.064;113.478;2023-10-09T17:33:36;94568.16;;;4.55
70415;BMP280;57837;52.064;113.478;2023-10-09T17:36:40;94564.47;;;4.56
70415;BMP280;57837;52.064;113.478;2023-10-09T17:39:43;94571.44;;;4.59
70415;BMP280;57837;52.064;113.478;2023-10-09T17:42:47;94563.03;;;4.62
70415;BMP280;57837;52.064;113.478;2023-10-09T17:45:54;94571.81;;;4.65
70415;BMP280;57837;52.064;113.478;2023-10-09T17:48:58;94563.38;;;4.68
70415;BMP280;57837;52.064;113.478;2023-10-09T17:52:03;94567.78;;;4.67